createdAt,value
2023-03-07T00:01:46.822Z,2.97
2023-03-07T00:04:33.811Z,2.80
2023-03-07T00:07:13.885Z,3.00
2023-03-07T00:10:00.828Z,3.22
2023-03-07T00:12:40.962Z,2.92
2023-03-07T00:15:27.818Z,3.10
2023-03-07T00:18:07.862Z,3.22
2023-03-07T00:21:07.841Z,3.20
2023-03-07T00:23:49.901Z,2.97
2023-03-07T00:26:36.813Z,2.92
2023-03-07T00:29:24.819Z,2.83
2023-03-07T00:32:05.666Z,3.15
2023-03-07T00:34:51.810Z,2.80
2023-03-07T00:37:32.330Z,2.97
2023-03-07T00:40:19.823Z,2.95
2023-03-07T00:43:00.378Z,2.65
2023-03-07T00:45:46.880Z,2.83
2023-03-07T00:48:34.821Z,2.80
2023-03-07T00:51:23.839Z,2.92
2023-03-07T00:54:17.823Z,2.53
2023-03-07T00:57:04.801Z,2.90
2023-03-07T01:02:31.814Z,2.85
2023-03-07T01:05:11.907Z,2.58
2023-03-07T01:07:58.830Z,2.55
2023-03-07T01:10:39.885Z,2.38
2023-03-07T01:16:14.903Z,1.92
2023-03-07T01:19:04.837Z,2.00
2023-03-07T01:21:48.328Z,2.40
2023-03-07T01:24:34.830Z,2.00
2023-03-07T01:27:14.890Z,1.80
2023-03-07T01:30:01.809Z,2.17
2023-03-07T01:32:44.134Z,1.70
2023-03-07T01:35:31.832Z,1.42
2023-03-07T01:38:12.891Z,1.70
2023-03-07T01:40:59.814Z,1.50
2023-03-07T01:43:49.824Z,1.60
2023-03-07T01:46:50.820Z,1.45
2023-03-07T01:49:42.741Z,1.40
2023-03-07T01:52:32.812Z,1.40
2023-03-07T01:55:25.870Z,1.10
2023-03-07T01:58:19.826Z,1.30
2023-03-07T02:01:00.449Z,1.30
2023-03-07T02:04:01.896Z,1.15
2023-03-07T02:06:49.653Z,1.33
2023-03-07T02:12:17.913Z,1.20
2023-03-07T02:14:58.821Z,1.33
2023-03-07T02:21:09.822Z,1.48
2023-03-07T02:24:11.892Z,1.20
2023-03-07T02:26:57.817Z,1.50
2023-03-07T02:29:44.927Z,1.33
2023-03-07T02:32:24.893Z,1.27
2023-03-07T02:35:19.577Z,1.35
2023-03-07T02:38:12.813Z,1.67
2023-03-07T02:41:01.886Z,1.40
2023-03-07T02:43:42.839Z,1.50
2023-03-07T02:46:29.948Z,2.00
2023-03-07T02:49:09.839Z,1.25
2023-03-07T02:52:00.493Z,1.40
2023-03-07T02:54:53.842Z,1.40
2023-03-07T02:57:38.492Z,1.13
2023-03-07T03:00:25.799Z,1.48
2023-03-07T03:03:06.832Z,1.55
2023-03-07T03:05:53.819Z,1.40
2023-03-07T03:08:40.827Z,1.50
2023-03-07T03:14:07.872Z,1.33
2023-03-07T03:16:54.840Z,1.50
2023-03-07T03:19:35.887Z,1.50
2023-03-07T03:22:22.848Z,1.42
2023-03-07T03:25:04.897Z,1.60
2023-03-07T03:27:52.845Z,1.45
2023-03-07T03:30:36.013Z,1.38
2023-03-07T03:33:22.830Z,1.20
2023-03-07T03:38:51.814Z,1.58
2023-03-07T03:41:39.836Z,1.45
2023-03-07T03:44:28.827Z,1.67
2023-03-07T03:49:55.828Z,1.40
2023-03-07T03:52:43.823Z,1.50
2023-03-07T03:55:30.956Z,1.55
2023-03-07T03:58:10.825Z,1.60
2023-03-07T04:00:57.841Z,1.30
2023-03-07T04:06:32.624Z,1.30
2023-03-07T04:09:18.828Z,1.35
2023-03-07T04:12:05.878Z,1.50
2023-03-07T04:14:45.831Z,1.23
2023-03-07T04:17:32.900Z,1.15
2023-03-07T04:20:17.868Z,1.23
2023-03-07T04:22:58.314Z,2.03
2023-03-07T04:25:45.872Z,1.23
2023-03-07T04:28:42.958Z,1.17
2023-03-07T04:31:39.843Z,1.27
2023-03-07T04:34:26.835Z,1.15
2023-03-07T04:37:06.884Z,1.35
2023-03-07T04:39:53.836Z,1.42
2023-03-07T04:42:40.822Z,1.52
2023-03-07T04:45:21.310Z,1.20
2023-03-07T04:48:07.815Z,1.20
2023-03-07T04:50:47.836Z,1.10
2023-03-07T04:53:34.834Z,1.00
2023-03-07T04:56:21.893Z,0.98
2023-03-07T04:59:02.850Z,0.93
2023-03-07T05:01:49.837Z,1.13
2023-03-07T05:04:29.922Z,1.10
2023-03-07T05:07:16.827Z,0.85
2023-03-07T05:12:44.841Z,1.35
2023-03-07T05:15:24.890Z,1.02
2023-03-07T05:18:11.865Z,0.80
2023-03-07T05:20:51.899Z,0.77
2023-03-07T05:23:38.807Z,1.15
2023-03-07T05:26:19.929Z,0.77
2023-03-07T05:29:06.821Z,0.75
2023-03-07T05:31:53.844Z,1.33
2023-03-07T05:37:21.810Z,0.70
2023-03-07T05:40:08.836Z,0.70
2023-03-07T05:42:59.841Z,0.80
2023-03-07T05:45:41.384Z,0.50
2023-03-07T05:48:27.838Z,0.70
2023-03-07T05:51:08.346Z,0.75
2023-03-07T05:53:54.836Z,1.02
2023-03-07T05:56:37.677Z,0.70
2023-03-07T05:59:24.840Z,0.40
2023-03-07T06:02:05.552Z,0.50
2023-03-07T06:04:54.836Z,0.50
2023-03-07T06:07:35.326Z,0.47
2023-03-07T06:10:22.861Z,0.63
2023-03-07T06:13:03.342Z,0.60
2023-03-07T06:15:49.877Z,0.75
2023-03-07T06:18:30.388Z,0.82
2023-03-07T06:21:21.825Z,1.27
2023-03-07T06:24:05.341Z,0.50
2023-03-07T06:26:52.835Z,1.05
2023-03-07T06:29:39.836Z,0.70
2023-03-07T06:32:26.933Z,0.80
2023-03-07T06:35:08.810Z,0.88
2023-03-07T06:37:55.826Z,0.80
2023-03-07T06:40:36.404Z,0.73
2023-03-07T06:43:27.834Z,0.80
2023-03-07T06:46:08.685Z,0.80
2023-03-07T06:48:58.816Z,0.68
2023-03-07T06:51:39.394Z,0.73
2023-03-07T06:54:25.830Z,0.82
2023-03-07T06:57:06.332Z,1.00
2023-03-07T06:59:53.823Z,0.95
2023-03-07T07:02:36.446Z,1.10
2023-03-07T07:05:22.825Z,0.63
2023-03-07T07:08:03.337Z,0.90
2023-03-07T07:10:49.839Z,0.90
2023-03-07T07:16:21.905Z,0.98
2023-03-07T07:19:08.830Z,0.80
2023-03-07T07:21:48.922Z,0.90
2023-03-07T07:24:35.829Z,1.00
2023-03-07T07:27:23.838Z,0.93
2023-03-07T07:30:05.446Z,0.90
2023-03-07T07:32:51.930Z,1.00
2023-03-07T07:35:38.862Z,1.00
2023-03-07T07:38:26.818Z,1.10
2023-03-07T07:41:07.344Z,1.00
2023-03-07T07:43:54.821Z,1.20
2023-03-07T07:46:42.317Z,1.20
2023-03-07T07:49:29.844Z,1.35
2023-03-07T07:52:16.849Z,1.15
2023-03-07T07:55:03.917Z,1.13
2023-03-07T07:57:43.850Z,1.23
2023-03-07T08:00:24.544Z,1.10
2023-03-07T08:03:12.845Z,0.85
2023-03-07T08:05:59.823Z,1.20
2023-03-07T08:08:39.925Z,1.20
2023-03-07T08:11:27.832Z,1.10
2023-03-07T08:14:09.418Z,0.98
2023-03-07T08:19:36.889Z,1.27
2023-03-07T08:25:04.486Z,1.35
2023-03-07T08:27:50.847Z,1.10
2023-03-07T08:30:32.946Z,1.30
2023-03-07T08:33:19.864Z,1.00
2023-03-07T08:35:59.939Z,1.40
2023-03-07T08:38:46.856Z,1.17
2023-03-07T08:41:29.000Z,1.25
2023-03-07T08:44:16.841Z,1.48
2023-03-07T08:46:56.924Z,1.60
2023-03-07T08:49:43.838Z,1.05
2023-03-07T08:52:23.888Z,1.48
2023-03-07T08:55:10.839Z,1.10
2023-03-07T08:57:51.094Z,1.40
2023-03-07T09:00:37.843Z,1.20
2023-03-07T09:03:17.884Z,1.10
2023-03-07T09:06:04.845Z,1.38
2023-03-07T09:08:44.997Z,1.40
2023-03-07T09:11:32.835Z,1.23
2023-03-07T09:14:12.952Z,1.50
2023-03-07T09:16:59.841Z,1.30
2023-03-07T09:19:43.188Z,1.30
2023-03-07T09:22:29.836Z,1.00
2023-03-07T09:25:10.862Z,1.40
2023-03-07T09:30:38.827Z,1.40
2023-03-07T09:33:25.846Z,1.35
2023-03-07T09:36:08.029Z,1.17
2023-03-07T09:38:57.172Z,1.25
2023-03-07T09:42:00.833Z,1.20
2023-03-07T09:45:09.925Z,1.30
2023-03-07T09:48:25.435Z,1.05
2023-03-07T09:51:25.842Z,1.23
2023-03-07T09:54:28.832Z,1.10
2023-03-07T09:57:25.860Z,1.30
2023-03-07T10:00:38.186Z,1.15
2023-03-07T10:03:52.982Z,1.10
2023-03-07T10:06:38.953Z,0.90
2023-03-07T10:09:30.855Z,1.10
2023-03-07T10:12:39.867Z,1.00
2023-03-07T10:15:48.375Z,1.20
2023-03-07T10:18:40.865Z,1.13
2023-03-07T10:21:57.191Z,1.00
2023-03-07T10:24:55.872Z,1.13
2023-03-07T10:27:42.890Z,0.95
2023-03-07T10:30:24.838Z,0.82
2023-03-07T10:33:13.900Z,0.90
2023-03-07T10:36:00.851Z,0.88
2023-03-07T10:39:21.830Z,0.80
2023-03-07T10:42:08.829Z,1.00
2023-03-07T10:44:51.322Z,0.90
2023-03-07T10:47:33.834Z,1.10
2023-03-07T10:50:32.859Z,1.00
2023-03-07T10:53:39.986Z,0.70
2023-03-07T10:56:29.831Z,0.70
2023-03-07T10:59:16.899Z,0.90
2023-03-07T11:02:05.842Z,0.73
2023-03-07T11:04:47.544Z,0.90
2023-03-07T11:07:43.834Z,0.70
2023-03-07T11:10:38.895Z,0.98
2023-03-07T11:13:22.845Z,1.00
2023-03-07T11:16:29.881Z,0.65
2023-03-07T11:19:16.838Z,0.75
2023-03-07T11:22:06.189Z,0.57
2023-03-07T11:24:46.845Z,0.57
2023-03-07T11:30:49.921Z,0.65
2023-03-07T11:33:33.386Z,0.63
2023-03-07T11:36:31.835Z,1.23
2023-03-07T11:39:43.827Z,0.77
2023-03-07T11:42:30.291Z,0.50
2023-03-07T11:45:35.837Z,1.10
2023-03-07T11:48:25.948Z,0.80
2023-03-07T11:51:20.855Z,0.73
2023-03-07T11:54:38.937Z,0.65
2023-03-07T11:57:52.844Z,0.65
2023-03-07T12:01:02.926Z,0.60
2023-03-07T12:04:20.978Z,0.70
2023-03-07T12:07:18.840Z,0.90
2023-03-07T12:10:05.913Z,0.60
2023-03-07T12:12:52.860Z,1.00
2023-03-07T12:15:48.873Z,0.80
2023-03-07T12:18:47.911Z,0.90
2023-03-07T12:21:51.871Z,0.55
2023-03-07T12:24:56.908Z,0.47
2023-03-07T12:27:49.851Z,0.70
2023-03-07T12:30:43.911Z,0.60
2023-03-07T12:33:46.843Z,0.68
2023-03-07T12:36:41.973Z,0.45
2023-03-07T12:39:37.838Z,0.70
2023-03-07T12:42:36.844Z,0.68
2023-03-07T12:45:27.940Z,0.57
2023-03-07T12:48:24.873Z,0.60
2023-03-07T12:51:21.937Z,0.63
2023-03-07T12:54:42.859Z,0.43
2023-03-07T12:57:44.853Z,0.52
2023-03-07T13:00:32.855Z,0.98
2023-03-07T13:03:13.907Z,0.63
2023-03-07T13:08:49.858Z,0.60
2023-03-07T13:11:39.854Z,0.57
2023-03-07T13:14:47.117Z,0.47
2023-03-07T13:17:36.840Z,0.50
2023-03-07T13:20:22.934Z,0.50
2023-03-07T13:23:31.907Z,0.50
2023-03-07T13:26:22.863Z,0.70
2023-03-07T13:29:09.849Z,0.60
2023-03-07T13:31:56.833Z,0.50
2023-03-07T13:34:54.847Z,0.40
2023-03-07T13:37:58.000Z,0.77
2023-03-07T13:40:50.876Z,0.40
2023-03-07T13:43:30.954Z,0.55
2023-03-07T13:46:58.893Z,0.77
2023-03-07T13:49:51.841Z,0.50
2023-03-07T13:52:35.633Z,0.70
2023-03-07T13:55:34.847Z,0.55
2023-03-07T13:58:37.842Z,0.60
2023-03-07T14:01:26.004Z,0.80
2023-03-07T14:04:40.782Z,0.70
2023-03-07T14:07:38.850Z,0.80
2023-03-07T14:10:36.913Z,0.50
2023-03-07T14:13:25.899Z,0.60
2023-03-07T14:16:35.075Z,0.90
2023-03-07T14:19:46.863Z,0.75
2023-03-07T14:22:45.353Z,0.90
2023-03-07T14:25:44.861Z,0.90
2023-03-07T14:28:27.780Z,0.60
2023-03-07T14:31:17.866Z,0.90
2023-03-07T14:33:58.761Z,0.52
2023-03-07T14:39:47.357Z,0.60
2023-03-07T14:42:45.837Z,0.63
2023-03-07T14:45:37.861Z,0.57
2023-03-07T14:48:20.941Z,0.90
2023-03-07T14:51:17.858Z,0.75
2023-03-07T14:54:04.843Z,0.80
2023-03-07T14:57:01.857Z,0.93
2023-03-07T14:59:48.857Z,0.80
2023-03-07T15:02:35.851Z,1.50
2023-03-07T15:05:24.931Z,1.50
2023-03-07T15:08:04.846Z,1.25
2023-03-07T15:10:55.851Z,1.17
2023-03-07T15:13:52.838Z,1.00
2023-03-07T15:16:50.839Z,0.90
2023-03-07T15:20:02.950Z,1.15
2023-03-07T15:22:56.845Z,1.00
2023-03-07T15:25:38.892Z,0.80
2023-03-07T15:28:40.860Z,0.82
2023-03-07T15:31:30.004Z,0.93
2023-03-07T15:34:17.865Z,0.80
2023-03-07T15:37:21.452Z,0.82
2023-03-07T15:40:11.867Z,1.00
2023-03-07T15:43:21.880Z,1.00
2023-03-07T15:46:08.961Z,0.90
2023-03-07T15:48:59.849Z,0.90
2023-03-07T15:51:46.869Z,1.00
2023-03-07T15:54:36.119Z,0.80
2023-03-07T15:57:25.886Z,0.95
2023-03-07T16:00:10.606Z,0.90
2023-03-07T16:02:56.905Z,0.93
2023-03-07T16:05:38.133Z,1.00
2023-03-07T16:11:14.861Z,0.70
2023-03-07T16:14:01.913Z,0.85
2023-03-07T16:16:43.961Z,0.93
2023-03-07T16:19:31.193Z,0.90
2023-03-07T16:22:10.874Z,0.90
2023-03-07T16:24:57.878Z,0.70
2023-03-07T16:27:38.425Z,1.35
2023-03-07T16:30:28.876Z,0.80
2023-03-07T16:33:15.857Z,1.20
2023-03-07T16:35:56.487Z,1.02
2023-03-07T16:38:42.850Z,0.75
2023-03-07T16:41:23.405Z,0.90
2023-03-07T16:44:12.855Z,1.23
2023-03-07T16:47:08.852Z,0.93
2023-03-07T16:49:50.741Z,1.20
2023-03-07T16:52:44.851Z,1.10
2023-03-07T16:55:40.858Z,1.02
2023-03-07T16:58:37.926Z,1.10
2023-03-07T17:01:21.953Z,0.75
2023-03-07T17:04:08.872Z,1.23
2023-03-07T17:09:51.882Z,1.17
2023-03-07T17:12:31.933Z,1.00
2023-03-07T17:15:24.862Z,1.10
2023-03-07T17:18:05.948Z,1.20
2023-03-07T17:23:39.885Z,1.20
2023-03-07T17:26:39.855Z,1.40
2023-03-07T17:29:39.921Z,1.00
2023-03-07T17:32:27.901Z,0.90
2023-03-07T17:35:15.875Z,1.40
2023-03-07T17:37:56.777Z,1.08
2023-03-07T17:43:31.858Z,1.10
2023-03-07T17:46:16.202Z,1.00
2023-03-07T17:49:02.879Z,0.85
2023-03-07T17:51:42.926Z,1.00
2023-03-07T17:54:29.867Z,0.88
2023-03-07T17:57:16.913Z,1.00
2023-03-07T17:59:56.869Z,0.70
2023-03-07T18:02:45.554Z,0.90
2023-03-07T18:05:32.862Z,1.02
2023-03-07T18:08:13.353Z,0.90
2023-03-07T18:10:59.858Z,1.30
2023-03-07T18:13:40.532Z,1.10
2023-03-07T18:16:26.926Z,1.20
2023-03-07T18:19:25.341Z,1.20
2023-03-07T18:22:12.865Z,1.50
2023-03-07T18:24:53.739Z,1.50
2023-03-07T18:30:27.873Z,1.27
2023-03-07T18:33:07.930Z,1.40
2023-03-07T18:35:54.979Z,0.90
2023-03-07T18:38:34.902Z,1.25
2023-03-07T18:41:27.864Z,1.10
2023-03-07T18:44:14.843Z,1.20
2023-03-07T18:47:01.921Z,1.10
2023-03-07T18:49:48.851Z,1.52
2023-03-07T18:52:35.931Z,1.30
2023-03-07T18:55:15.855Z,1.50
2023-03-07T18:58:09.855Z,1.73
2023-03-07T19:00:56.894Z,1.80
2023-03-07T19:03:36.935Z,2.20
2023-03-07T19:06:25.907Z,2.60
2023-03-07T19:09:05.997Z,2.60
2023-03-07T19:11:53.908Z,2.30
2023-03-07T19:14:33.968Z,2.80
2023-03-07T19:17:20.858Z,2.75
2023-03-07T19:20:00.913Z,3.00
2023-03-07T19:22:47.850Z,2.83
2023-03-07T19:25:36.870Z,3.30
2023-03-07T19:28:23.912Z,3.03
2023-03-07T19:31:04.873Z,2.95
2023-03-07T19:36:34.839Z,2.70
2023-03-07T19:39:21.926Z,2.03
2023-03-07T19:42:01.858Z,2.00
2023-03-07T19:44:42.477Z,2.20
2023-03-07T19:47:28.849Z,2.45
2023-03-07T19:50:10.208Z,2.10
2023-03-07T19:55:50.841Z,1.95
2023-03-07T19:58:37.859Z,1.80
2023-03-07T20:01:26.946Z,1.95
2023-03-07T20:04:07.785Z,1.83
2023-03-07T20:09:42.853Z,1.80
2023-03-07T20:12:22.909Z,2.03
2023-03-07T20:15:09.855Z,1.80
2023-03-07T20:17:49.959Z,1.90
2023-03-07T20:20:36.854Z,1.70
2023-03-07T20:23:16.931Z,1.80
2023-03-07T20:26:15.898Z,1.73
2023-03-07T20:29:06.857Z,1.60
2023-03-07T20:31:49.018Z,1.77
2023-03-07T20:34:35.862Z,1.65
2023-03-07T20:37:16.365Z,1.60
2023-03-07T20:40:04.684Z,1.60
2023-03-07T20:42:51.974Z,1.80
2023-03-07T20:45:31.874Z,1.60
2023-03-07T20:48:18.860Z,1.55
2023-03-07T20:51:05.886Z,1.50
2023-03-07T20:53:58.022Z,1.63
2023-03-07T20:56:46.895Z,1.70
2023-03-07T20:59:27.388Z,1.55
2023-03-07T21:02:13.880Z,1.42
2023-03-07T21:04:54.407Z,1.60
2023-03-07T21:07:40.868Z,1.35
2023-03-07T21:10:22.474Z,1.55
2023-03-07T21:13:10.865Z,3.80
2023-03-07T21:16:06.892Z,1.60
2023-03-07T21:18:47.934Z,1.73
2023-03-07T21:21:36.897Z,1.73
2023-03-07T21:24:25.871Z,1.80
2023-03-07T21:27:06.334Z,1.92
2023-03-07T21:29:52.884Z,1.90
2023-03-07T21:32:33.377Z,2.20
2023-03-07T21:35:20.877Z,2.20
2023-03-07T21:38:07.863Z,2.25
2023-03-07T21:40:47.917Z,2.45
2023-03-07T21:43:34.892Z,2.78
2023-03-07T21:46:18.034Z,2.13
2023-03-07T21:49:08.019Z,2.47
2023-03-07T21:51:48.136Z,2.75
2023-03-07T21:54:34.882Z,2.55
2023-03-07T21:57:14.972Z,2.70
2023-03-07T22:00:01.846Z,2.60
2023-03-07T22:02:45.917Z,2.63
2023-03-07T22:05:32.847Z,2.55
2023-03-07T22:08:12.961Z,2.50
2023-03-07T22:11:06.870Z,2.65
2023-03-07T22:13:47.996Z,2.88
2023-03-07T22:16:34.928Z,2.35
2023-03-07T22:19:14.994Z,2.97
2023-03-07T22:22:01.861Z,2.67
2023-03-07T22:24:41.923Z,2.50
2023-03-07T22:27:28.875Z,2.88
2023-03-07T22:30:09.607Z,2.72
2023-03-07T22:32:55.849Z,2.55
2023-03-07T22:35:36.010Z,2.15
2023-03-07T22:38:23.866Z,2.47
2023-03-07T22:41:17.031Z,2.58
2023-03-07T22:44:03.845Z,2.30
2023-03-07T22:46:45.024Z,2.20
2023-03-07T22:49:33.901Z,2.10
2023-03-07T22:52:13.893Z,2.08
2023-03-07T22:55:01.871Z,2.00
2023-03-07T22:57:48.939Z,1.92
2023-03-07T23:00:28.877Z,1.80
2023-03-07T23:03:09.729Z,1.60
2023-03-07T23:05:56.882Z,1.50
2023-03-07T23:08:37.376Z,1.33
2023-03-07T23:11:23.864Z,1.58
2023-03-07T23:14:10.921Z,1.75
2023-03-07T23:16:51.065Z,2.20
2023-03-07T23:19:37.963Z,1.77
2023-03-07T23:22:18.874Z,1.80
2023-03-07T23:25:05.917Z,1.95
2023-03-07T23:27:46.854Z,1.58
2023-03-07T23:30:27.416Z,1.85
2023-03-07T23:33:13.878Z,1.95
2023-03-07T23:35:54.874Z,1.80
2023-03-07T23:38:41.873Z,1.90
2023-03-07T23:41:28.858Z,2.30
2023-03-07T23:44:09.901Z,1.73
2023-03-07T23:46:57.878Z,1.60
2023-03-07T23:49:45.847Z,1.88
2023-03-07T23:52:40.863Z,1.60
2023-03-07T23:55:28.916Z,1.52
2023-03-07T23:58:09.444Z,1.58
